Airfield :
LOGIN :

Register | Disclaimer

   EN    FR    IT 

 










Legend :    VFR   Marginal VFR   IFR   Intensive IFR   Very Intensive IFR
Visi :
Ceiling :
>= 8 km
>= 3000ft
5 to 8 km
1000 to 3000 ft
1500m to 5 km
500 to 1000 ft
800 to 1500m
200 to 500 ft
< 800m
< 200 ft
Symbols :   Thunderstorms  Fog  Heavy snow  Heavy precipitations  Wind > 20 kt
SIGMETs :     Misc.  Thunderstorms  Icing  Turbulence  Mountain Waves  Volcanic Ashes






- Airport Elevation : 407 ft


EGDM - MoD Boscombe Down Amesbury

CURRENT METAR :
  • 250950Z 28011KT 9999 FEW021 SCT028 17/12 Q1017 NOSIG RMK BLU BLU

EXPIRED METARs :
  • 250920Z 29014KT 9999 SCT028 SCT160 17/11 Q1017 NOSIG RMK BLU BLU
  • 250850Z 30013KT 9999 BKN020 SCT160 17/13 Q1017 BECMG SCT025 RMK WHT BECMG BLU
  • 250820Z 30009KT 9999 BKN022 SCT160 18/13 Q1017 WHT BECMG SCT025 RMK WHT BECMG BLU
  • 250750Z 30009KT 9999 SCT014 BKN024 16/14 Q1017 BECMG FEW014 SCT024 RMK GRN BECMG WHT
  • 250720Z 29006KT 9999 SCT009 BKN024 15/15 Q1017 BECMG FEW012 BKN024 RMK GRN BECMG WHT
  • 250709Z 28006KT 9999 SCT012 BKN024 15/14 Q1017 BECMG FEW012 RMK GRN BECMG WHT

TAF TAF EGDM
Valid from the 25 at 09:00 until the 25 at 18:00 UTC


250747Z 2509/2518 28008KT 9999 FEW020 SCT030
TEMPO 2509/2511 SCT020



MET'MAP, your aeronautical weather chart ! - Copyright ORBIFLY December 2007 - Disclaimer

ORBIFLY MET'MAP TEAM :

Programming & Development : Alexandra Zaïnal
Concept & original design : Baudouin d'Aumeries
Assistance for programming : Marc-Olivier Méhu
Technical & hardware support : Manuel Goepfert

Contact : metmap@orbifly.com




SOURCES & CREDITS :

   NOAA